Pope Air Force Base
KPOB : now visible

Airfield :











YOU CAN JOIN US ON...

 
LOGIN :

Register | Disclaimer

   EN    FR    IT 

 









Legend :    VFR   Marginal VFR   IFR   Intensive IFR   Very Intensive IFR
Visi :
Ceiling :
>= 8 km
>= 3000ft
5 to 8 km
1000 to 3000 ft
1500m to 5 km
500 to 1000 ft
800 to 1500m
200 to 500 ft
< 800m
< 200 ft
Symbols :   Thunderstorms  Fog  Heavy snow  Heavy precipitations  Wind > 20 kt






- Airport Elevation : 217 ft


KPOB - Pope Air Force Base

CURRENT METAR :
  • 280656Z AUTO 00000KT 10SM CLR 09/08 A2988 RMK AO2 SLP121 T00930077 $

EXPIRED METARs :
  • 280616Z AUTO 29003KT 10SM CLR 10/08 A2988 RMK AO2 SLP121 $
  • 280556Z AUTO 28003KT 10SM CLR 10/09 A2986 RMK AO2 SLP114 T00960085 10147 20087 58005 $
  • 280547Z AUTO 28003KT 10SM CLR 09/09 A2986 RMK AO2 SLP114 $
  • 280506Z AUTO 07003KT 10SM CLR 09/08 A2984 RMK AO2 PRESFR SLP107 $
  • 280456Z AUTO 00000KT 10SM CLR 09/08 A2986 RMK AO2 SLP114 T00920081 402130061 $

TAF TAF KPOB
Valid from the 28 at 01:00 until the 29 at 07:00 UTC


280100Z 2801/2907 VRB03KT 9999 FEW250 QNH2983INS
BECMG 2814/2815 12008KT 9999 FEW030 SCT045 SCT150 QNH2976INS
BECMG 2819/2820 13008KT 9000 -SHRA SCT030 BKN045 OVC130 QNH2970INS
BECMG 2821/2822 11010G15KT 8000 -SHRA SCT010 BKN020 OVC060 QNH2965INS
BECMG 2823/2824 10012G18KT 4800 SHRA BR SCT004 OVC007 QNH2953INS TX20/2819Z TN09/2811Z LAST NO AMDS AFT 2802 NEXT 2817
KZDC FIR / North America



MET'MAP, your aeronautical weather chart ! - Copyright ORBIFLY December 2007 - Disclaimer

ORBIFLY MET'MAP TEAM :

Programming & Development : Alexandra Zaïnal
Concept & original design : Baudouin d'Aumeries
Assistance for programming : Marc-Olivier Méhu
Technical & hardware support : Manuel Goepfert

Contact : metmap@orbifly.com




SOURCES & CREDITS :

   NOAA       Earth
Advisory